sensor_id;sensor_type;location;lat;lon;timestamp;P1;durP1;ratioP1;P2;durP2;ratioP2
64225;SDS011;50545;56.064;26.178;2022-10-22T00:00:15;4.63;;;2.58;;
64225;SDS011;50545;56.064;26.178;2022-10-22T00:02:43;5.15;;;2.45;;
64225;SDS011;50545;56.064;26.178;2022-10-22T00:05:10;5.95;;;2.55;;
64225;SDS011;50545;56.064;26.178;2022-10-22T00:07:38;4.07;;;2.25;;
64225;SDS011;50545;56.064;26.178;2022-10-22T00:10:06;6.72;;;2.40;;
64225;SDS011;50545;56.064;26.178;2022-10-22T00:12:34;5.13;;;2.40;;
64225;SDS011;50545;56.064;26.178;2022-10-22T00:15:02;5.38;;;2.60;;
64225;SDS011;50545;56.064;26.178;2022-10-22T00:17:30;5.68;;;2.38;;
64225;SDS011;50545;56.064;26.178;2022-10-22T00:19:57;4.63;;;2.35;;
64225;SDS011;50545;56.064;26.178;2022-10-22T00:22:24;5.68;;;2.47;;
64225;SDS011;50545;56.064;26.178;2022-10-22T00:24:51;4.88;;;2.72;;
64225;SDS011;50545;56.064;26.178;2022-10-22T00:27:18;5.20;;;2.42;;
64225;SDS011;50545;56.064;26.178;2022-10-22T00:29:45;5.43;;;2.58;;
64225;SDS011;50545;56.064;26.178;2022-10-22T00:32:13;4.82;;;2.60;;
64225;SDS011;50545;56.064;26.178;2022-10-22T00:34:40;4.68;;;2.50;;
64225;SDS011;50545;56.064;26.178;2022-10-22T00:37:08;6.32;;;2.42;;
64225;SDS011;50545;56.064;26.178;2022-10-22T00:39:35;3.40;;;2.10;;
64225;SDS011;50545;56.064;26.178;2022-10-22T00:42:02;4.28;;;2.40;;
64225;SDS011;50545;56.064;26.178;2022-10-22T00:50:12;6.90;;;2.42;;
64225;SDS011;50545;56.064;26.178;2022-10-22T00:52:44;4.72;;;2.28;;
64225;SDS011;50545;56.064;26.178;2022-10-22T00:55:13;3.63;;;2.30;;
64225;SDS011;50545;56.064;26.178;2022-10-22T00:57:41;4.97;;;2.20;;
64225;SDS011;50545;56.064;26.178;2022-10-22T01:00:09;5.13;;;2.35;;
64225;SDS011;50545;56.064;26.178;2022-10-22T01:02:36;4.05;;;2.30;;
64225;SDS011;50545;56.064;26.178;2022-10-22T01:05:05;4.80;;;2.47;;
64225;SDS011;50545;56.064;26.178;2022-10-22T01:07:33;3.80;;;2.25;;
64225;SDS011;50545;56.064;26.178;2022-10-22T01:13:28;3.72;;;2.15;;
64225;SDS011;50545;56.064;26.178;2022-10-22T01:15:54;3.75;;;2.20;;
64225;SDS011;50545;56.064;26.178;2022-10-22T01:18:26;4.00;;;2.10;;
64225;SDS011;50545;56.064;26.178;2022-10-22T01:31:47;4.13;;;2.10;;
64225;SDS011;50545;56.064;26.178;2022-10-22T01:34:20;3.53;;;2.25;;
64225;SDS011;50545;56.064;26.178;2022-10-22T01:36:48;4.53;;;2.28;;
64225;SDS011;50545;56.064;26.178;2022-10-22T01:39:17;3.28;;;2.22;;
64225;SDS011;50545;56.064;26.178;2022-10-22T01:41:46;4.18;;;2.30;;
64225;SDS011;50545;56.064;26.178;2022-10-22T01:44:29;4.70;;;2.28;;
64225;SDS011;50545;56.064;26.178;2022-10-22T01:47:04;3.15;;;2.10;;
64225;SDS011;50545;56.064;26.178;2022-10-22T01:49:41;3.90;;;1.98;;
64225;SDS011;50545;56.064;26.178;2022-10-22T01:52:38;4.53;;;2.13;;
64225;SDS011;50545;56.064;26.178;2022-10-22T02:04:01;3.75;;;2.25;;
64225;SDS011;50545;56.064;26.178;2022-10-22T02:06:28;4.88;;;2.17;;
64225;SDS011;50545;56.064;26.178;2022-10-22T02:08:57;6.38;;;2.05;;
64225;SDS011;50545;56.064;26.178;2022-10-22T02:11:27;4.10;;;2.40;;
64225;SDS011;50545;56.064;26.178;2022-10-22T02:13:57;3.30;;;1.90;;
64225;SDS011;50545;56.064;26.178;2022-10-22T02:16:34;3.75;;;2.13;;
64225;SDS011;50545;56.064;26.178;2022-10-22T02:19:10;3.03;;;1.88;;
64225;SDS011;50545;56.064;26.178;2022-10-22T02:21:49;3.03;;;2.13;;
64225;SDS011;50545;56.064;26.178;2022-10-22T02:24:18;3.85;;;2.15;;
64225;SDS011;50545;56.064;26.178;2022-10-22T02:30:12;3.92;;;2.22;;
64225;SDS011;50545;56.064;26.178;2022-10-22T02:32:33;3.63;;;2.10;;
64225;SDS011;50545;56.064;26.178;2022-10-22T02:35:20;3.45;;;2.00;;
64225;SDS011;50545;56.064;26.178;2022-10-22T02:40:18;6.55;;;2.55;;
64225;SDS011;50545;56.064;26.178;2022-10-22T02:42:46;4.30;;;2.45;;
64225;SDS011;50545;56.064;26.178;2022-10-22T02:45:16;5.13;;;2.70;;
64225;SDS011;50545;56.064;26.178;2022-10-22T02:47:44;3.88;;;2.20;;
64225;SDS011;50545;56.064;26.178;2022-10-22T02:50:11;5.57;;;2.28;;
64225;SDS011;50545;56.064;26.178;2022-10-22T02:52:39;4.85;;;2.28;;
64225;SDS011;50545;56.064;26.178;2022-10-22T02:55:07;3.83;;;2.30;;
64225;SDS011;50545;56.064;26.178;2022-10-22T02:57:35;4.25;;;2.17;;
64225;SDS011;50545;56.064;26.178;2022-10-22T03:00:03;3.40;;;1.95;;
64225;SDS011;50545;56.064;26.178;2022-10-22T03:02:32;2.35;;;1.77;;
64225;SDS011;50545;56.064;26.178;2022-10-22T03:04:59;3.58;;;2.10;;
64225;SDS011;50545;56.064;26.178;2022-10-22T03:07:26;4.18;;;1.95;;
64225;SDS011;50545;56.064;26.178;2022-10-22T03:09:54;3.80;;;2.35;;
64225;SDS011;50545;56.064;26.178;2022-10-22T03:12:21;3.38;;;2.17;;
64225;SDS011;50545;56.064;26.178;2022-10-22T03:14:48;2.97;;;1.98;;
64225;SDS011;50545;56.064;26.178;2022-10-22T03:17:15;3.22;;;1.90;;
64225;SDS011;50545;56.064;26.178;2022-10-22T03:19:43;4.18;;;2.17;;
64225;SDS011;50545;56.064;26.178;2022-10-22T03:22:11;2.67;;;1.80;;
64225;SDS011;50545;56.064;26.178;2022-10-22T03:24:45;4.07;;;2.13;;
64225;SDS011;50545;56.064;26.178;2022-10-22T03:27:15;3.67;;;2.30;;
64225;SDS011;50545;56.064;26.178;2022-10-22T03:29:45;4.40;;;2.10;;
64225;SDS011;50545;56.064;26.178;2022-10-22T03:32:12;3.75;;;2.22;;
64225;SDS011;50545;56.064;26.178;2022-10-22T03:34:40;4.30;;;2.00;;
64225;SDS011;50545;56.064;26.178;2022-10-22T03:37:07;4.22;;;2.22;;
64225;SDS011;50545;56.064;26.178;2022-10-22T03:39:34;5.15;;;2.50;;
64225;SDS011;50545;56.064;26.178;2022-10-22T03:42:03;4.07;;;2.30;;
64225;SDS011;50545;56.064;26.178;2022-10-22T03:44:32;4.30;;;2.00;;
64225;SDS011;50545;56.064;26.178;2022-10-22T03:47:01;3.78;;;2.10;;
64225;SDS011;50545;56.064;26.178;2022-10-22T03:49:28;4.60;;;1.88;;
64225;SDS011;50545;56.064;26.178;2022-10-22T03:51:55;4.40;;;2.20;;
64225;SDS011;50545;56.064;26.178;2022-10-22T03:54:23;3.42;;;2.20;;
64225;SDS011;50545;56.064;26.178;2022-10-22T03:56:50;5.88;;;2.60;;
64225;SDS011;50545;56.064;26.178;2022-10-22T03:59:17;5.35;;;2.67;;
64225;SDS011;50545;56.064;26.178;2022-10-22T04:01:45;4.15;;;2.22;;
64225;SDS011;50545;56.064;26.178;2022-10-22T04:04:12;5.00;;;2.30;;
64225;SDS011;50545;56.064;26.178;2022-10-22T04:06:39;3.03;;;1.90;;
64225;SDS011;50545;56.064;26.178;2022-10-22T04:09:06;3.38;;;2.08;;
64225;SDS011;50545;56.064;26.178;2022-10-22T04:11:34;2.92;;;1.90;;
64225;SDS011;50545;56.064;26.178;2022-10-22T04:14:01;4.93;;;2.30;;
64225;SDS011;50545;56.064;26.178;2022-10-22T04:16:28;2.42;;;1.92;;
64225;SDS011;50545;56.064;26.178;2022-10-22T04:18:57;4.03;;;2.13;;
64225;SDS011;50545;56.064;26.178;2022-10-22T04:21:25;5.40;;;2.35;;
64225;SDS011;50545;56.064;26.178;2022-10-22T04:23:52;4.75;;;2.60;;
64225;SDS011;50545;56.064;26.178;2022-10-22T04:26:20;4.07;;;2.30;;
64225;SDS011;50545;56.064;26.178;2022-10-22T04:28:47;5.28;;;2.25;;
64225;SDS011;50545;56.064;26.178;2022-10-22T04:31:18;4.00;;;2.40;;
64225;SDS011;50545;56.064;26.178;2022-10-22T04:33:51;4.78;;;2.50;;
64225;SDS011;50545;56.064;26.178;2022-10-22T04:36:20;4.20;;;2.20;;
64225;SDS011;50545;56.064;26.178;2022-10-22T04:38:55;5.05;;;2.30;;
64225;SDS011;50545;56.064;26.178;2022-10-22T04:41:33;3.42;;;2.20;;
64225;SDS011;50545;56.064;26.178;2022-10-22T04:44:03;4.38;;;2.30;;
64225;SDS011;50545;56.064;26.178;2022-10-22T04:46:32;4.25;;;2.20;;
64225;SDS011;50545;56.064;26.178;2022-10-22T04:49:00;4.03;;;2.30;;
64225;SDS011;50545;56.064;26.178;2022-10-22T04:51:29;4.90;;;2.30;;
64225;SDS011;50545;56.064;26.178;2022-10-22T04:53:57;4.70;;;2.00;;
64225;SDS011;50545;56.064;26.178;2022-10-22T04:56:26;3.70;;;2.10;;
64225;SDS011;50545;56.064;26.178;2022-10-22T04:59:00;3.55;;;2.13;;
64225;SDS011;50545;56.064;26.178;2022-10-22T05:01:30;5.63;;;2.35;;
64225;SDS011;50545;56.064;26.178;2022-10-22T05:04:05;5.10;;;2.40;;
64225;SDS011;50545;56.064;26.178;2022-10-22T05:06:34;3.92;;;2.28;;
64225;SDS011;50545;56.064;26.178;2022-10-22T05:09:03;4.70;;;2.30;;
64225;SDS011;50545;56.064;26.178;2022-10-22T05:11:34;4.43;;;2.25;;
64225;SDS011;50545;56.064;26.178;2022-10-22T05:14:04;3.08;;;2.08;;
64225;SDS011;50545;56.064;26.178;2022-10-22T05:16:32;3.75;;;2.30;;
64225;SDS011;50545;56.064;26.178;2022-10-22T05:19:00;4.60;;;2.50;;
64225;SDS011;50545;56.064;26.178;2022-10-22T05:21:28;4.10;;;2.40;;
64225;SDS011;50545;56.064;26.178;2022-10-22T05:23:57;4.90;;;2.20;;
64225;SDS011;50545;56.064;26.178;2022-10-22T05:26:27;3.15;;;2.10;;
64225;SDS011;50545;56.064;26.178;2022-10-22T05:28:55;4.20;;;2.30;;
64225;SDS011;50545;56.064;26.178;2022-10-22T05:31:22;4.75;;;2.28;;
64225;SDS011;50545;56.064;26.178;2022-10-22T05:33:50;4.80;;;2.40;;
64225;SDS011;50545;56.064;26.178;2022-10-22T05:36:18;3.08;;;2.10;;
64225;SDS011;50545;56.064;26.178;2022-10-22T05:38:46;5.40;;;2.20;;
64225;SDS011;50545;56.064;26.178;2022-10-22T05:41:16;4.55;;;2.13;;
64225;SDS011;50545;56.064;26.178;2022-10-22T05:43:45;3.75;;;2.30;;
64225;SDS011;50545;56.064;26.178;2022-10-22T05:46:13;7.25;;;2.50;;
64225;SDS011;50545;56.064;26.178;2022-10-22T05:48:51;4.70;;;2.38;;
64225;SDS011;50545;56.064;26.178;2022-10-22T05:51:20;7.22;;;2.70;;
64225;SDS011;50545;56.064;26.178;2022-10-22T05:53:52;4.05;;;2.45;;
64225;SDS011;50545;56.064;26.178;2022-10-22T05:56:20;5.35;;;2.15;;
64225;SDS011;50545;56.064;26.178;2022-10-22T05:58:48;5.38;;;2.42;;
64225;SDS011;50545;56.064;26.178;2022-10-22T06:01:17;3.83;;;2.10;;
64225;SDS011;50545;56.064;26.178;2022-10-22T06:03:45;4.63;;;2.40;;
64225;SDS011;50545;56.064;26.178;2022-10-22T06:06:17;4.13;;;2.35;;
64225;SDS011;50545;56.064;26.178;2022-10-22T06:08:52;3.60;;;2.03;;
64225;SDS011;50545;56.064;26.178;2022-10-22T06:11:22;3.75;;;2.45;;
64225;SDS011;50545;56.064;26.178;2022-10-22T06:13:49;4.03;;;2.17;;
64225;SDS011;50545;56.064;26.178;2022-10-22T06:16:17;5.65;;;2.60;;
64225;SDS011;50545;56.064;26.178;2022-10-22T06:18:44;4.30;;;2.30;;
64225;SDS011;50545;56.064;26.178;2022-10-22T06:21:13;4.20;;;2.20;;
64225;SDS011;50545;56.064;26.178;2022-10-22T06:23:41;4.13;;;2.40;;
64225;SDS011;50545;56.064;26.178;2022-10-22T06:26:09;3.38;;;1.98;;
64225;SDS011;50545;56.064;26.178;2022-10-22T06:28:37;4.15;;;2.10;;
64225;SDS011;50545;56.064;26.178;2022-10-22T06:31:04;3.50;;;1.98;;
64225;SDS011;50545;56.064;26.178;2022-10-22T06:33:32;4.45;;;2.63;;
64225;SDS011;50545;56.064;26.178;2022-10-22T06:36:06;4.53;;;2.40;;
64225;SDS011;50545;56.064;26.178;2022-10-22T06:38:37;3.88;;;2.03;;
64225;SDS011;50545;56.064;26.178;2022-10-22T06:41:07;4.30;;;2.10;;
64225;SDS011;50545;56.064;26.178;2022-10-22T06:43:36;4.68;;;2.50;;
64225;SDS011;50545;56.064;26.178;2022-10-22T06:46:05;3.55;;;2.15;;
64225;SDS011;50545;56.064;26.178;2022-10-22T06:48:35;5.10;;;2.30;;
64225;SDS011;50545;56.064;26.178;2022-10-22T06:51:04;3.28;;;2.30;;
64225;SDS011;50545;56.064;26.178;2022-10-22T06:53:37;3.28;;;2.15;;
64225;SDS011;50545;56.064;26.178;2022-10-22T06:56:09;5.05;;;2.63;;
64225;SDS011;50545;56.064;26.178;2022-10-22T06:58:38;3.35;;;2.13;;
64225;SDS011;50545;56.064;26.178;2022-10-22T07:01:09;3.83;;;2.40;;
64225;SDS011;50545;56.064;26.178;2022-10-22T07:03:39;4.75;;;2.50;;
64225;SDS011;50545;56.064;26.178;2022-10-22T07:06:08;4.15;;;2.25;;
64225;SDS011;50545;56.064;26.178;2022-10-22T07:08:37;3.38;;;2.28;;
64225;SDS011;50545;56.064;26.178;2022-10-22T07:11:06;5.35;;;2.45;;
64225;SDS011;50545;56.064;26.178;2022-10-22T07:13:35;3.50;;;2.00;;
64225;SDS011;50545;56.064;26.178;2022-10-22T07:16:03;3.70;;;2.30;;
64225;SDS011;50545;56.064;26.178;2022-10-22T07:18:32;4.47;;;2.20;;
64225;SDS011;50545;56.064;26.178;2022-10-22T07:21:00;6.18;;;2.50;;
64225;SDS011;50545;56.064;26.178;2022-10-22T07:23:28;4.45;;;2.42;;
64225;SDS011;50545;56.064;26.178;2022-10-22T07:25:55;3.67;;;2.13;;
64225;SDS011;50545;56.064;26.178;2022-10-22T07:28:23;4.38;;;2.28;;
64225;SDS011;50545;56.064;26.178;2022-10-22T07:30:51;4.07;;;2.38;;
64225;SDS011;50545;56.064;26.178;2022-10-22T07:33:18;4.30;;;2.40;;
64225;SDS011;50545;56.064;26.178;2022-10-22T07:35:45;4.28;;;2.58;;
64225;SDS011;50545;56.064;26.178;2022-10-22T07:38:13;5.57;;;2.60;;
64225;SDS011;50545;56.064;26.178;2022-10-22T07:40:40;4.75;;;2.67;;
64225;SDS011;50545;56.064;26.178;2022-10-22T07:43:07;3.33;;;2.03;;
64225;SDS011;50545;56.064;26.178;2022-10-22T07:45:34;6.53;;;3.10;;
64225;SDS011;50545;56.064;26.178;2022-10-22T07:48:02;4.10;;;2.10;;
64225;SDS011;50545;56.064;26.178;2022-10-22T07:50:29;3.72;;;2.17;;
64225;SDS011;50545;56.064;26.178;2022-10-22T07:52:56;3.92;;;2.25;;
64225;SDS011;50545;56.064;26.178;2022-10-22T07:55:24;5.55;;;2.53;;
64225;SDS011;50545;56.064;26.178;2022-10-22T07:57:51;4.72;;;2.33;;
64225;SDS011;50545;56.064;26.178;2022-10-22T08:00:19;2.65;;;1.75;;
64225;SDS011;50545;56.064;26.178;2022-10-22T08:02:50;4.40;;;2.40;;
64225;SDS011;50545;56.064;26.178;2022-10-22T08:05:18;4.20;;;2.33;;
64225;SDS011;50545;56.064;26.178;2022-10-22T08:07:45;5.47;;;2.20;;
64225;SDS011;50545;56.064;26.178;2022-10-22T08:10:12;4.47;;;2.42;;
64225;SDS011;50545;56.064;26.178;2022-10-22T08:12:40;4.25;;;2.55;;
64225;SDS011;50545;56.064;26.178;2022-10-22T08:15:08;6.57;;;2.60;;
64225;SDS011;50545;56.064;26.178;2022-10-22T08:17:36;5.03;;;2.53;;
64225;SDS011;50545;56.064;26.178;2022-10-22T08:20:03;4.80;;;2.40;;
64225;SDS011;50545;56.064;26.178;2022-10-22T08:22:30;4.07;;;2.28;;
64225;SDS011;50545;56.064;26.178;2022-10-22T08:24:58;4.38;;;2.40;;
64225;SDS011;50545;56.064;26.178;2022-10-22T08:27:25;2.00;;;1.50;;
64225;SDS011;50545;56.064;26.178;2022-10-22T08:29:53;4.13;;;2.30;;
64225;SDS011;50545;56.064;26.178;2022-10-22T08:32:20;4.05;;;2.20;;
64225;SDS011;50545;56.064;26.178;2022-10-22T08:34:47;3.65;;;2.30;;
64225;SDS011;50545;56.064;26.178;2022-10-22T08:37:15;4.32;;;2.00;;
64225;SDS011;50545;56.064;26.178;2022-10-22T08:39:43;3.92;;;2.25;;
64225;SDS011;50545;56.064;26.178;2022-10-22T08:53:06;5.47;;;2.03;;
64225;SDS011;50545;56.064;26.178;2022-10-22T08:55:38;3.42;;;2.15;;
64225;SDS011;50545;56.064;26.178;2022-10-22T09:00:51;3.40;;;2.10;;
64225;SDS011;50545;56.064;26.178;2022-10-22T09:06:13;4.22;;;2.30;;
64225;SDS011;50545;56.064;26.178;2022-10-22T09:08:45;3.42;;;2.05;;
64225;SDS011;50545;56.064;26.178;2022-10-22T09:14:00;3.53;;;2.10;;
64225;SDS011;50545;56.064;26.178;2022-10-22T09:24:44;6.00;;;2.40;;
64225;SDS011;50545;56.064;26.178;2022-10-22T09:27:17;3.75;;;2.33;;
64225;SDS011;50545;56.064;26.178;2022-10-22T09:29:47;4.05;;;1.90;;
64225;SDS011;50545;56.064;26.178;2022-10-22T09:32:15;4.18;;;2.50;;
64225;SDS011;50545;56.064;26.178;2022-10-22T09:34:43;4.20;;;2.10;;
64225;SDS011;50545;56.064;26.178;2022-10-22T09:37:11;3.63;;;1.92;;
64225;SDS011;50545;56.064;26.178;2022-10-22T09:39:44;3.55;;;2.17;;
64225;SDS011;50545;56.064;26.178;2022-10-22T09:42:14;4.03;;;2.33;;
64225;SDS011;50545;56.064;26.178;2022-10-22T09:44:44;4.57;;;2.15;;
64225;SDS011;50545;56.064;26.178;2022-10-22T09:47:38;4.60;;;2.03;;
64225;SDS011;50545;56.064;26.178;2022-10-22T09:50:46;2.72;;;1.70;;
64225;SDS011;50545;56.064;26.178;2022-10-22T09:53:19;4.18;;;1.95;;
64225;SDS011;50545;56.064;26.178;2022-10-22T09:59:01;2.47;;;1.67;;
64225;SDS011;50545;56.064;26.178;2022-10-22T10:01:34;4.05;;;1.92;;
64225;SDS011;50545;56.064;26.178;2022-10-22T10:04:05;2.75;;;1.77;;
64225;SDS011;50545;56.064;26.178;2022-10-22T10:06:38;4.05;;;1.85;;
64225;SDS011;50545;56.064;26.178;2022-10-22T10:09:13;5.30;;;2.30;;
64225;SDS011;50545;56.064;26.178;2022-10-22T10:14:23;4.32;;;2.10;;
64225;SDS011;50545;56.064;26.178;2022-10-22T10:25:30;2.83;;;1.75;;
64225;SDS011;50545;56.064;26.178;2022-10-22T10:36:33;2.95;;;1.98;;
64225;SDS011;50545;56.064;26.178;2022-10-22T10:39:18;2.97;;;1.67;;
64225;SDS011;50545;56.064;26.178;2022-10-22T10:44:52;5.05;;;2.05;;
64225;SDS011;50545;56.064;26.178;2022-10-22T10:50:29;2.42;;;1.70;;
64225;SDS011;50545;56.064;26.178;2022-10-22T10:53:28;4.15;;;2.10;;
64225;SDS011;50545;56.064;26.178;2022-10-22T10:58:58;4.00;;;2.05;;
64225;SDS011;50545;56.064;26.178;2022-10-22T11:01:40;3.20;;;1.70;;
64225;SDS011;50545;56.064;26.178;2022-10-22T11:07:11;3.60;;;1.85;;
64225;SDS011;50545;56.064;26.178;2022-10-22T11:10:02;4.63;;;2.00;;
64225;SDS011;50545;56.064;26.178;2022-10-22T11:12:37;2.45;;;1.40;;
64225;SDS011;50545;56.064;26.178;2022-10-22T11:17:41;3.42;;;2.17;;
64225;SDS011;50545;56.064;26.178;2022-10-22T11:20:15;4.50;;;2.25;;
64225;SDS011;50545;56.064;26.178;2022-10-22T11:22:49;2.60;;;1.85;;
64225;SDS011;50545;56.064;26.178;2022-10-22T11:25:44;5.18;;;2.45;;
64225;SDS011;50545;56.064;26.178;2022-10-22T11:28:13;3.90;;;2.10;;
64225;SDS011;50545;56.064;26.178;2022-10-22T11:31:09;3.65;;;2.05;;
64225;SDS011;50545;56.064;26.178;2022-10-22T11:33:47;5.18;;;2.28;;
64225;SDS011;50545;56.064;26.178;2022-10-22T11:36:57;3.33;;;2.03;;
64225;SDS011;50545;56.064;26.178;2022-10-22T11:39:46;5.63;;;2.47;;
64225;SDS011;50545;56.064;26.178;2022-10-22T11:42:38;3.47;;;1.38;;
64225;SDS011;50545;56.064;26.178;2022-10-22T11:47:50;5.38;;;2.50;;
64225;SDS011;50545;56.064;26.178;2022-10-22T11:55:45;4.70;;;2.40;;
64225;SDS011;50545;56.064;26.178;2022-10-22T11:58:28;5.03;;;2.53;;
64225;SDS011;50545;56.064;26.178;2022-10-22T12:03:37;5.13;;;2.47;;
64225;SDS011;50545;56.064;26.178;2022-10-22T12:08:45;3.72;;;2.22;;
64225;SDS011;50545;56.064;26.178;2022-10-22T12:11:34;4.68;;;2.45;;
64225;SDS011;50545;56.064;26.178;2022-10-22T12:14:24;5.55;;;2.72;;
64225;SDS011;50545;56.064;26.178;2022-10-22T12:16:58;8.85;;;2.88;;
64225;SDS011;50545;56.064;26.178;2022-10-22T12:19:37;4.97;;;2.58;;
64225;SDS011;50545;56.064;26.178;2022-10-22T12:22:51;5.05;;;2.70;;
64225;SDS011;50545;56.064;26.178;2022-10-22T12:25:15;4.85;;;2.65;;
64225;SDS011;50545;56.064;26.178;2022-10-22T12:27:52;6.45;;;2.38;;
64225;SDS011;50545;56.064;26.178;2022-10-22T12:32:52;3.10;;;2.00;;
64225;SDS011;50545;56.064;26.178;2022-10-22T12:35:27;6.20;;;2.40;;
64225;SDS011;50545;56.064;26.178;2022-10-22T12:38:04;5.13;;;2.33;;
64225;SDS011;50545;56.064;26.178;2022-10-22T12:40:39;4.28;;;2.17;;
64225;SDS011;50545;56.064;26.178;2022-10-22T12:43:14;6.55;;;2.25;;
64225;SDS011;50545;56.064;26.178;2022-10-22T12:45:44;3.70;;;2.05;;
64225;SDS011;50545;56.064;26.178;2022-10-22T12:48:31;3.53;;;2.17;;
64225;SDS011;50545;56.064;26.178;2022-10-22T12:51:04;4.40;;;2.30;;
64225;SDS011;50545;56.064;26.178;2022-10-22T12:53:36;4.00;;;2.45;;
64225;SDS011;50545;56.064;26.178;2022-10-22T12:56:13;3.20;;;1.80;;
64225;SDS011;50545;56.064;26.178;2022-10-22T12:59:02;4.20;;;2.03;;
64225;SDS011;50545;56.064;26.178;2022-10-22T13:01:41;5.93;;;2.80;;
64225;SDS011;50545;56.064;26.178;2022-10-22T13:06:43;3.60;;;2.08;;
64225;SDS011;50545;56.064;26.178;2022-10-22T13:09:38;4.97;;;2.40;;
64225;SDS011;50545;56.064;26.178;2022-10-22T13:12:06;5.75;;;2.50;;
64225;SDS011;50545;56.064;26.178;2022-10-22T13:14:42;5.57;;;2.75;;
64225;SDS011;50545;56.064;26.178;2022-10-22T13:22:39;4.47;;;2.63;;
64225;SDS011;50545;56.064;26.178;2022-10-22T13:30:18;5.95;;;3.17;;
64225;SDS011;50545;56.064;26.178;2022-10-22T13:32:56;7.90;;;2.90;;
64225;SDS011;50545;56.064;26.178;2022-10-22T13:35:27;6.20;;;3.05;;
64225;SDS011;50545;56.064;26.178;2022-10-22T13:37:58;7.47;;;3.38;;
64225;SDS011;50545;56.064;26.178;2022-10-22T13:40:26;8.35;;;3.28;;
64225;SDS011;50545;56.064;26.178;2022-10-22T13:42:53;6.47;;;3.22;;
64225;SDS011;50545;56.064;26.178;2022-10-22T13:45:20;7.25;;;3.40;;
64225;SDS011;50545;56.064;26.178;2022-10-22T13:47:48;7.20;;;3.70;;
64225;SDS011;50545;56.064;26.178;2022-10-22T13:52:50;6.72;;;3.25;;
64225;SDS011;50545;56.064;26.178;2022-10-22T13:55:24;7.93;;;3.53;;
64225;SDS011;50545;56.064;26.178;2022-10-22T13:57:54;7.80;;;3.70;;
64225;SDS011;50545;56.064;26.178;2022-10-22T14:00:48;6.82;;;3.58;;
64225;SDS011;50545;56.064;26.178;2022-10-22T14:03:25;7.85;;;3.47;;
64225;SDS011;50545;56.064;26.178;2022-10-22T14:05:57;6.25;;;3.20;;
64225;SDS011;50545;56.064;26.178;2022-10-22T14:08:25;7.38;;;3.20;;
64225;SDS011;50545;56.064;26.178;2022-10-22T14:10:53;5.55;;;2.90;;
64225;SDS011;50545;56.064;26.178;2022-10-22T14:13:21;8.13;;;3.15;;
64225;SDS011;50545;56.064;26.178;2022-10-22T14:15:49;6.82;;;3.05;;
64225;SDS011;50545;56.064;26.178;2022-10-22T14:18:25;8.15;;;3.55;;
64225;SDS011;50545;56.064;26.178;2022-10-22T14:20:57;7.10;;;3.30;;
64225;SDS011;50545;56.064;26.178;2022-10-22T14:23:30;6.53;;;3.42;;
64225;SDS011;50545;56.064;26.178;2022-10-22T14:25:58;7.05;;;3.58;;
64225;SDS011;50545;56.064;26.178;2022-10-22T14:28:26;9.05;;;3.90;;
64225;SDS011;50545;56.064;26.178;2022-10-22T14:30:56;7.07;;;3.13;;
64225;SDS011;50545;56.064;26.178;2022-10-22T14:33:24;7.88;;;3.67;;
64225;SDS011;50545;56.064;26.178;2022-10-22T14:36:00;7.65;;;3.42;;
64225;SDS011;50545;56.064;26.178;2022-10-22T14:38:28;7.18;;;3.28;;
64225;SDS011;50545;56.064;26.178;2022-10-22T14:40:55;6.40;;;3.50;;
64225;SDS011;50545;56.064;26.178;2022-10-22T14:43:25;6.68;;;3.10;;
64225;SDS011;50545;56.064;26.178;2022-10-22T14:45:56;6.88;;;3.13;;
64225;SDS011;50545;56.064;26.178;2022-10-22T14:48:24;6.85;;;3.22;;
64225;SDS011;50545;56.064;26.178;2022-10-22T14:50:51;6.50;;;3.20;;
64225;SDS011;50545;56.064;26.178;2022-10-22T14:53:20;7.22;;;3.33;;
64225;SDS011;50545;56.064;26.178;2022-10-22T14:55:47;6.20;;;2.85;;
64225;SDS011;50545;56.064;26.178;2022-10-22T14:58:16;7.75;;;3.42;;
64225;SDS011;50545;56.064;26.178;2022-10-22T15:00:44;6.68;;;3.08;;
64225;SDS011;50545;56.064;26.178;2022-10-22T15:03:11;9.45;;;3.88;;
64225;SDS011;50545;56.064;26.178;2022-10-22T15:05:39;8.90;;;3.45;;
64225;SDS011;50545;56.064;26.178;2022-10-22T15:08:10;6.28;;;3.30;;
64225;SDS011;50545;56.064;26.178;2022-10-22T15:10:39;6.50;;;3.30;;
64225;SDS011;50545;56.064;26.178;2022-10-22T15:13:07;10.05;;;3.47;;
64225;SDS011;50545;56.064;26.178;2022-10-22T15:15:34;8.23;;;3.63;;
64225;SDS011;50545;56.064;26.178;2022-10-22T15:18:05;8.15;;;3.63;;
64225;SDS011;50545;56.064;26.178;2022-10-22T15:20:32;9.43;;;3.20;;
64225;SDS011;50545;56.064;26.178;2022-10-22T15:22:59;8.07;;;3.75;;
64225;SDS011;50545;56.064;26.178;2022-10-22T15:25:27;7.60;;;3.50;;
64225;SDS011;50545;56.064;26.178;2022-10-22T15:27:54;8.02;;;3.78;;
64225;SDS011;50545;56.064;26.178;2022-10-22T15:30:33;7.53;;;3.55;;
64225;SDS011;50545;56.064;26.178;2022-10-22T15:33:00;10.52;;;4.15;;
64225;SDS011;50545;56.064;26.178;2022-10-22T15:35:27;8.57;;;3.75;;
64225;SDS011;50545;56.064;26.178;2022-10-22T15:37:54;8.15;;;4.00;;
64225;SDS011;50545;56.064;26.178;2022-10-22T15:40:22;7.97;;;3.78;;
64225;SDS011;50545;56.064;26.178;2022-10-22T15:42:49;8.65;;;3.67;;
64225;SDS011;50545;56.064;26.178;2022-10-22T15:45:16;7.13;;;3.53;;
64225;SDS011;50545;56.064;26.178;2022-10-22T15:47:44;9.63;;;3.97;;
64225;SDS011;50545;56.064;26.178;2022-10-22T15:50:13;7.43;;;3.60;;
64225;SDS011;50545;56.064;26.178;2022-10-22T15:52:40;7.50;;;3.78;;
64225;SDS011;50545;56.064;26.178;2022-10-22T15:55:07;6.65;;;3.35;;
64225;SDS011;50545;56.064;26.178;2022-10-22T15:57:36;9.27;;;3.92;;
64225;SDS011;50545;56.064;26.178;2022-10-22T16:00:05;9.43;;;3.67;;
64225;SDS011;50545;56.064;26.178;2022-10-22T16:02:33;7.85;;;3.50;;
64225;SDS011;50545;56.064;26.178;2022-10-22T16:05:00;8.95;;;3.97;;
64225;SDS011;50545;56.064;26.178;2022-10-22T16:07:28;9.88;;;4.28;;
64225;SDS011;50545;56.064;26.178;2022-10-22T16:09:58;10.27;;;4.47;;
64225;SDS011;50545;56.064;26.178;2022-10-22T16:12:27;10.20;;;4.38;;
64225;SDS011;50545;56.064;26.178;2022-10-22T16:14:54;10.18;;;4.47;;
64225;SDS011;50545;56.064;26.178;2022-10-22T16:17:21;8.00;;;4.18;;
64225;SDS011;50545;56.064;26.178;2022-10-22T16:19:49;7.80;;;4.07;;
64225;SDS011;50545;56.064;26.178;2022-10-22T16:22:17;8.68;;;3.92;;
64225;SDS011;50545;56.064;26.178;2022-10-22T16:24:44;6.65;;;3.50;;
64225;SDS011;50545;56.064;26.178;2022-10-22T16:27:11;6.75;;;3.80;;
64225;SDS011;50545;56.064;26.178;2022-10-22T16:29:38;7.22;;;3.83;;
64225;SDS011;50545;56.064;26.178;2022-10-22T16:32:06;9.27;;;3.80;;
64225;SDS011;50545;56.064;26.178;2022-10-22T16:34:33;6.70;;;3.30;;
64225;SDS011;50545;56.064;26.178;2022-10-22T16:37:00;7.53;;;3.42;;
64225;SDS011;50545;56.064;26.178;2022-10-22T16:39:28;6.65;;;3.70;;
64225;SDS011;50545;56.064;26.178;2022-10-22T16:41:55;6.53;;;3.35;;
64225;SDS011;50545;56.064;26.178;2022-10-22T16:44:22;5.75;;;3.10;;
64225;SDS011;50545;56.064;26.178;2022-10-22T16:46:49;6.90;;;3.75;;
64225;SDS011;50545;56.064;26.178;2022-10-22T16:49:17;6.75;;;3.50;;
64225;SDS011;50545;56.064;26.178;2022-10-22T16:51:44;6.35;;;3.30;;
64225;SDS011;50545;56.064;26.178;2022-10-22T16:54:11;10.70;;;3.78;;
64225;SDS011;50545;56.064;26.178;2022-10-22T16:56:41;9.52;;;4.00;;
64225;SDS011;50545;56.064;26.178;2022-10-22T16:59:08;7.10;;;3.90;;
64225;SDS011;50545;56.064;26.178;2022-10-22T17:01:35;8.07;;;3.83;;
64225;SDS011;50545;56.064;26.178;2022-10-22T17:04:06;8.93;;;3.90;;